sensor_id;sensor_type;location;lat;lon;timestamp;P1;durP1;ratioP1;P2;durP2;ratioP2
69573;SDS011;62840;52.366;5.980;2024-03-02T00:01:33;3.30;;;1.30;;
69573;SDS011;62840;52.366;5.980;2024-03-02T00:03:59;4.18;;;1.33;;
69573;SDS011;62840;52.366;5.980;2024-03-02T00:06:27;3.70;;;1.47;;
69573;SDS011;62840;52.366;5.980;2024-03-02T00:08:56;4.15;;;1.20;;
69573;SDS011;62840;52.366;5.980;2024-03-02T00:11:23;4.05;;;1.30;;
69573;SDS011;62840;52.366;5.980;2024-03-02T00:13:50;3.28;;;1.10;;
69573;SDS011;62840;52.366;5.980;2024-03-02T00:16:18;3.10;;;1.10;;
69573;SDS011;62840;52.366;5.980;2024-03-02T00:18:44;4.60;;;1.40;;
69573;SDS011;62840;52.366;5.980;2024-03-02T00:21:10;3.47;;;1.20;;
69573;SDS011;62840;52.366;5.980;2024-03-02T00:23:38;3.35;;;1.40;;
69573;SDS011;62840;52.366;5.980;2024-03-02T00:26:04;3.47;;;1.20;;
69573;SDS011;62840;52.366;5.980;2024-03-02T00:28:32;4.88;;;1.42;;
69573;SDS011;62840;52.366;5.980;2024-03-02T00:31:01;3.42;;;1.30;;
69573;SDS011;62840;52.366;5.980;2024-03-02T00:33:32;4.25;;;1.52;;
69573;SDS011;62840;52.366;5.980;2024-03-02T00:35:59;4.32;;;1.50;;
69573;SDS011;62840;52.366;5.980;2024-03-02T00:38:26;4.27;;;1.10;;
69573;SDS011;62840;52.366;5.980;2024-03-02T00:40:56;3.90;;;1.23;;
69573;SDS011;62840;52.366;5.980;2024-03-02T00:46:12;4.10;;;1.50;;
69573;SDS011;62840;52.366;5.980;2024-03-02T00:48:52;3.42;;;1.02;;
69573;SDS011;62840;52.366;5.980;2024-03-02T00:51:21;4.07;;;1.30;;
69573;SDS011;62840;52.366;5.980;2024-03-02T00:53:48;3.20;;;1.30;;
69573;SDS011;62840;52.366;5.980;2024-03-02T00:56:17;3.08;;;1.10;;
69573;SDS011;62840;52.366;5.980;2024-03-02T00:58:44;5.47;;;1.55;;
69573;SDS011;62840;52.366;5.980;2024-03-02T01:01:10;3.35;;;1.00;;
69573;SDS011;62840;52.366;5.980;2024-03-02T01:03:36;3.00;;;1.40;;
69573;SDS011;62840;52.366;5.980;2024-03-02T01:06:02;3.47;;;1.50;;
69573;SDS011;62840;52.366;5.980;2024-03-02T01:08:29;3.05;;;1.27;;
69573;SDS011;62840;52.366;5.980;2024-03-02T01:10:55;3.20;;;1.20;;
69573;SDS011;62840;52.366;5.980;2024-03-02T01:13:24;4.63;;;1.40;;
69573;SDS011;62840;52.366;5.980;2024-03-02T01:15:50;4.90;;;1.20;;
69573;SDS011;62840;52.366;5.980;2024-03-02T01:18:16;5.00;;;1.40;;
69573;SDS011;62840;52.366;5.980;2024-03-02T01:20:42;4.18;;;1.30;;
69573;SDS011;62840;52.366;5.980;2024-03-02T01:23:08;4.35;;;1.25;;
69573;SDS011;62840;52.366;5.980;2024-03-02T01:25:34;3.70;;;0.90;;
69573;SDS011;62840;52.366;5.980;2024-03-02T01:28:00;4.03;;;1.20;;
69573;SDS011;62840;52.366;5.980;2024-03-02T01:30:28;3.83;;;1.00;;
69573;SDS011;62840;52.366;5.980;2024-03-02T01:32:54;3.08;;;1.20;;
69573;SDS011;62840;52.366;5.980;2024-03-02T01:35:20;2.93;;;0.97;;
69573;SDS011;62840;52.366;5.980;2024-03-02T01:37:46;4.28;;;1.33;;
69573;SDS011;62840;52.366;5.980;2024-03-02T01:40:12;4.32;;;1.35;;
69573;SDS011;62840;52.366;5.980;2024-03-02T01:42:38;4.72;;;1.25;;
69573;SDS011;62840;52.366;5.980;2024-03-02T01:45:04;2.83;;;1.13;;
69573;SDS011;62840;52.366;5.980;2024-03-02T01:47:35;3.95;;;1.40;;
69573;SDS011;62840;52.366;5.980;2024-03-02T01:50:01;3.63;;;1.20;;
69573;SDS011;62840;52.366;5.980;2024-03-02T01:52:27;4.90;;;1.30;;
69573;SDS011;62840;52.366;5.980;2024-03-02T01:54:53;4.72;;;1.20;;
69573;SDS011;62840;52.366;5.980;2024-03-02T01:57:19;3.38;;;1.13;;
69573;SDS011;62840;52.366;5.980;2024-03-02T01:59:45;3.33;;;1.42;;
69573;SDS011;62840;52.366;5.980;2024-03-02T02:02:12;3.00;;;1.47;;
69573;SDS011;62840;52.366;5.980;2024-03-02T02:04:40;3.45;;;1.40;;
69573;SDS011;62840;52.366;5.980;2024-03-02T02:07:06;3.83;;;1.70;;
69573;SDS011;62840;52.366;5.980;2024-03-02T02:09:32;4.20;;;1.67;;
69573;SDS011;62840;52.366;5.980;2024-03-02T02:11:58;3.90;;;1.50;;
69573;SDS011;62840;52.366;5.980;2024-03-02T02:14:24;3.15;;;1.20;;
69573;SDS011;62840;52.366;5.980;2024-03-02T02:16:50;3.40;;;1.45;;
69573;SDS011;62840;52.366;5.980;2024-03-02T02:19:16;2.90;;;1.30;;
69573;SDS011;62840;52.366;5.980;2024-03-02T02:21:45;4.30;;;1.20;;
69573;SDS011;62840;52.366;5.980;2024-03-02T02:24:11;3.92;;;1.08;;
69573;SDS011;62840;52.366;5.980;2024-03-02T02:26:36;2.90;;;1.10;;
69573;SDS011;62840;52.366;5.980;2024-03-02T02:29:02;3.50;;;1.20;;
69573;SDS011;62840;52.366;5.980;2024-03-02T02:31:36;4.25;;;1.33;;
69573;SDS011;62840;52.366;5.980;2024-03-02T02:34:02;2.83;;;1.00;;
69573;SDS011;62840;52.366;5.980;2024-03-02T02:36:28;3.63;;;1.07;;
69573;SDS011;62840;52.366;5.980;2024-03-02T02:38:57;3.80;;;1.05;;
69573;SDS011;62840;52.366;5.980;2024-03-02T02:41:27;3.00;;;0.98;;
69573;SDS011;62840;52.366;5.980;2024-03-02T02:43:52;3.13;;;0.77;;
69573;SDS011;62840;52.366;5.980;2024-03-02T02:46:18;3.35;;;1.08;;
69573;SDS011;62840;52.366;5.980;2024-03-02T02:48:44;3.08;;;0.75;;
69573;SDS011;62840;52.366;5.980;2024-03-02T02:51:10;4.67;;;1.07;;
69573;SDS011;62840;52.366;5.980;2024-03-02T02:53:36;2.65;;;0.70;;
69573;SDS011;62840;52.366;5.980;2024-03-02T02:56:05;2.55;;;0.90;;
69573;SDS011;62840;52.366;5.980;2024-03-02T02:58:31;3.00;;;0.85;;
69573;SDS011;62840;52.366;5.980;2024-03-02T03:00:57;2.70;;;0.80;;
69573;SDS011;62840;52.366;5.980;2024-03-02T03:03:23;2.45;;;0.60;;
69573;SDS011;62840;52.366;5.980;2024-03-02T03:05:49;2.47;;;0.73;;
69573;SDS011;62840;52.366;5.980;2024-03-02T03:08:15;3.17;;;0.75;;
69573;SDS011;62840;52.366;5.980;2024-03-02T03:10:41;2.95;;;0.88;;
69573;SDS011;62840;52.366;5.980;2024-03-02T03:13:10;2.50;;;0.90;;
69573;SDS011;62840;52.366;5.980;2024-03-02T03:15:36;2.03;;;0.53;;
69573;SDS011;62840;52.366;5.980;2024-03-02T03:18:03;2.30;;;0.60;;
69573;SDS011;62840;52.366;5.980;2024-03-02T03:20:29;3.05;;;1.02;;
69573;SDS011;62840;52.366;5.980;2024-03-02T03:22:56;3.13;;;0.60;;
69573;SDS011;62840;52.366;5.980;2024-03-02T03:25:22;2.33;;;0.80;;
69573;SDS011;62840;52.366;5.980;2024-03-02T03:27:48;2.30;;;0.70;;
69573;SDS011;62840;52.366;5.980;2024-03-02T03:30:18;2.25;;;0.75;;
69573;SDS011;62840;52.366;5.980;2024-03-02T03:32:44;2.30;;;0.70;;
69573;SDS011;62840;52.366;5.980;2024-03-02T03:35:10;2.63;;;0.70;;
69573;SDS011;62840;52.366;5.980;2024-03-02T03:37:36;2.05;;;0.90;;
69573;SDS011;62840;52.366;5.980;2024-03-02T03:40:02;2.55;;;0.70;;
69573;SDS011;62840;52.366;5.980;2024-03-02T03:42:29;2.20;;;0.70;;
69573;SDS011;62840;52.366;5.980;2024-03-02T03:44:55;1.90;;;0.70;;
69573;SDS011;62840;52.366;5.980;2024-03-02T03:47:23;1.98;;;0.52;;
69573;SDS011;62840;52.366;5.980;2024-03-02T03:49:49;2.17;;;0.50;;
69573;SDS011;62840;52.366;5.980;2024-03-02T03:52:15;2.00;;;0.60;;
69573;SDS011;62840;52.366;5.980;2024-03-02T03:54:41;1.83;;;0.60;;
69573;SDS011;62840;52.366;5.980;2024-03-02T03:57:06;2.00;;;0.60;;
69573;SDS011;62840;52.366;5.980;2024-03-02T03:59:32;2.43;;;0.70;;
69573;SDS011;62840;52.366;5.980;2024-03-02T04:01:58;2.30;;;0.70;;
69573;SDS011;62840;52.366;5.980;2024-03-02T04:04:29;2.10;;;0.50;;
69573;SDS011;62840;52.366;5.980;2024-03-02T04:06:55;2.10;;;0.45;;
69573;SDS011;62840;52.366;5.980;2024-03-02T04:09:20;2.20;;;0.80;;
69573;SDS011;62840;52.366;5.980;2024-03-02T04:11:46;2.10;;;0.70;;
69573;SDS011;62840;52.366;5.980;2024-03-02T04:14:12;2.30;;;0.55;;
69573;SDS011;62840;52.366;5.980;2024-03-02T04:16:38;2.20;;;0.60;;
69573;SDS011;62840;52.366;5.980;2024-03-02T04:19:04;2.83;;;0.63;;
69573;SDS011;62840;52.366;5.980;2024-03-02T04:21:33;2.00;;;0.50;;
69573;SDS011;62840;52.366;5.980;2024-03-02T04:23:59;1.98;;;0.50;;
69573;SDS011;62840;52.366;5.980;2024-03-02T04:26:25;1.88;;;0.50;;
69573;SDS011;62840;52.366;5.980;2024-03-02T04:28:51;2.22;;;0.50;;
69573;SDS011;62840;52.366;5.980;2024-03-02T04:31:17;2.00;;;0.60;;
69573;SDS011;62840;52.366;5.980;2024-03-02T04:33:43;1.92;;;0.50;;
69573;SDS011;62840;52.366;5.980;2024-03-02T04:36:09;2.63;;;0.63;;
69573;SDS011;62840;52.366;5.980;2024-03-02T04:38:37;3.13;;;0.60;;
69573;SDS011;62840;52.366;5.980;2024-03-02T04:41:04;3.05;;;0.52;;
69573;SDS011;62840;52.366;5.980;2024-03-02T04:43:31;2.20;;;0.60;;
69573;SDS011;62840;52.366;5.980;2024-03-02T04:45:57;2.05;;;0.60;;
69573;SDS011;62840;52.366;5.980;2024-03-02T04:48:24;2.67;;;0.70;;
69573;SDS011;62840;52.366;5.980;2024-03-02T04:50:50;1.97;;;0.50;;
69573;SDS011;62840;52.366;5.980;2024-03-02T04:53:16;1.67;;;0.50;;
69573;SDS011;62840;52.366;5.980;2024-03-02T04:55:45;2.80;;;0.80;;
69573;SDS011;62840;52.366;5.980;2024-03-02T04:58:10;3.80;;;0.88;;
69573;SDS011;62840;52.366;5.980;2024-03-02T05:00:36;2.10;;;0.60;;
69573;SDS011;62840;52.366;5.980;2024-03-02T05:03:02;2.05;;;0.60;;
69573;SDS011;62840;52.366;5.980;2024-03-02T05:05:29;1.70;;;0.43;;
69573;SDS011;62840;52.366;5.980;2024-03-02T05:07:55;2.50;;;0.70;;
69573;SDS011;62840;52.366;5.980;2024-03-02T05:10:21;1.80;;;0.50;;
69573;SDS011;62840;52.366;5.980;2024-03-02T05:12:49;1.70;;;0.50;;
69573;SDS011;62840;52.366;5.980;2024-03-02T05:15:15;2.07;;;0.50;;
69573;SDS011;62840;52.366;5.980;2024-03-02T05:17:41;2.45;;;0.60;;
69573;SDS011;62840;52.366;5.980;2024-03-02T05:20:08;1.90;;;0.55;;
69573;SDS011;62840;52.366;5.980;2024-03-02T05:22:35;2.00;;;0.50;;
69573;SDS011;62840;52.366;5.980;2024-03-02T05:25:02;3.15;;;0.75;;
69573;SDS011;62840;52.366;5.980;2024-03-02T05:27:30;2.15;;;0.65;;
69573;SDS011;62840;52.366;5.980;2024-03-02T05:29:59;2.05;;;0.60;;
69573;SDS011;62840;52.366;5.980;2024-03-02T05:32:25;2.55;;;0.52;;
69573;SDS011;62840;52.366;5.980;2024-03-02T05:34:51;2.55;;;1.00;;
69573;SDS011;62840;52.366;5.980;2024-03-02T05:37:17;3.07;;;0.70;;
69573;SDS011;62840;52.366;5.980;2024-03-02T05:39:43;2.10;;;0.50;;
69573;SDS011;62840;52.366;5.980;2024-03-02T05:42:09;1.80;;;0.70;;
69573;SDS011;62840;52.366;5.980;2024-03-02T05:44:35;3.45;;;0.60;;
69573;SDS011;62840;52.366;5.980;2024-03-02T05:47:04;2.00;;;0.50;;
69573;SDS011;62840;52.366;5.980;2024-03-02T05:49:30;2.20;;;0.80;;
69573;SDS011;62840;52.366;5.980;2024-03-02T05:51:56;1.88;;;0.40;;
69573;SDS011;62840;52.366;5.980;2024-03-02T05:54:23;2.28;;;0.60;;
69573;SDS011;62840;52.366;5.980;2024-03-02T05:56:49;1.90;;;0.40;;
69573;SDS011;62840;52.366;5.980;2024-03-02T05:59:15;1.90;;;0.50;;
69573;SDS011;62840;52.366;5.980;2024-03-02T06:01:41;1.88;;;0.50;;
69573;SDS011;62840;52.366;5.980;2024-03-02T06:04:12;2.17;;;0.57;;
69573;SDS011;62840;52.366;5.980;2024-03-02T06:06:39;1.92;;;0.40;;
69573;SDS011;62840;52.366;5.980;2024-03-02T06:09:05;2.20;;;0.70;;
69573;SDS011;62840;52.366;5.980;2024-03-02T06:11:32;1.60;;;0.50;;
69573;SDS011;62840;52.366;5.980;2024-03-02T06:13:58;2.77;;;0.60;;
69573;SDS011;62840;52.366;5.980;2024-03-02T06:16:24;2.40;;;0.70;;
69573;SDS011;62840;52.366;5.980;2024-03-02T06:18:49;3.88;;;0.80;;
69573;SDS011;62840;52.366;5.980;2024-03-02T06:21:18;2.27;;;0.60;;
69573;SDS011;62840;52.366;5.980;2024-03-02T06:23:44;1.88;;;0.68;;
69573;SDS011;62840;52.366;5.980;2024-03-02T06:26:09;2.30;;;0.50;;
69573;SDS011;62840;52.366;5.980;2024-03-02T06:28:35;1.90;;;0.50;;
69573;SDS011;62840;52.366;5.980;2024-03-02T06:31:01;2.10;;;0.70;;
69573;SDS011;62840;52.366;5.980;2024-03-02T06:33:28;3.17;;;0.50;;
69573;SDS011;62840;52.366;5.980;2024-03-02T06:35:53;2.57;;;0.87;;
69573;SDS011;62840;52.366;5.980;2024-03-02T06:38:22;2.00;;;0.73;;
69573;SDS011;62840;52.366;5.980;2024-03-02T06:40:48;2.42;;;0.80;;
69573;SDS011;62840;52.366;5.980;2024-03-02T06:43:14;2.10;;;0.53;;
69573;SDS011;62840;52.366;5.980;2024-03-02T06:45:40;2.20;;;0.60;;
69573;SDS011;62840;52.366;5.980;2024-03-02T06:48:06;2.40;;;0.68;;
69573;SDS011;62840;52.366;5.980;2024-03-02T06:50:32;2.67;;;0.80;;
69573;SDS011;62840;52.366;5.980;2024-03-02T06:52:58;2.40;;;0.60;;
69573;SDS011;62840;52.366;5.980;2024-03-02T06:55:27;2.47;;;0.60;;
69573;SDS011;62840;52.366;5.980;2024-03-02T06:57:53;2.50;;;0.50;;
69573;SDS011;62840;52.366;5.980;2024-03-02T07:00:20;3.08;;;0.80;;
69573;SDS011;62840;52.366;5.980;2024-03-02T07:02:46;2.30;;;0.50;;
69573;SDS011;62840;52.366;5.980;2024-03-02T07:05:12;1.80;;;0.50;;
69573;SDS011;62840;52.366;5.980;2024-03-02T07:07:38;2.45;;;0.60;;
69573;SDS011;62840;52.366;5.980;2024-03-02T07:10:04;2.70;;;0.70;;
69573;SDS011;62840;52.366;5.980;2024-03-02T07:12:34;3.05;;;0.68;;
69573;SDS011;62840;52.366;5.980;2024-03-02T07:15:00;2.78;;;1.00;;
69573;SDS011;62840;52.366;5.980;2024-03-02T07:17:26;2.03;;;0.50;;
69573;SDS011;62840;52.366;5.980;2024-03-02T07:19:52;2.00;;;0.80;;
69573;SDS011;62840;52.366;5.980;2024-03-02T07:22:18;2.30;;;0.63;;
69573;SDS011;62840;52.366;5.980;2024-03-02T07:24:44;2.85;;;0.60;;
69573;SDS011;62840;52.366;5.980;2024-03-02T07:27:10;2.00;;;0.60;;
69573;SDS011;62840;52.366;5.980;2024-03-02T07:29:39;1.98;;;0.63;;
69573;SDS011;62840;52.366;5.980;2024-03-02T07:32:05;2.38;;;0.70;;
69573;SDS011;62840;52.366;5.980;2024-03-02T07:34:32;3.05;;;0.65;;
69573;SDS011;62840;52.366;5.980;2024-03-02T07:36:58;2.37;;;0.73;;
69573;SDS011;62840;52.366;5.980;2024-03-02T07:39:24;2.00;;;0.68;;
69573;SDS011;62840;52.366;5.980;2024-03-02T07:41:50;2.55;;;0.60;;
69573;SDS011;62840;52.366;5.980;2024-03-02T07:44:16;2.25;;;0.60;;
69573;SDS011;62840;52.366;5.980;2024-03-02T07:46:45;2.70;;;0.87;;
69573;SDS011;62840;52.366;5.980;2024-03-02T07:49:13;2.70;;;0.70;;
69573;SDS011;62840;52.366;5.980;2024-03-02T07:51:39;2.88;;;0.80;;
69573;SDS011;62840;52.366;5.980;2024-03-02T07:54:06;2.28;;;0.60;;
69573;SDS011;62840;52.366;5.980;2024-03-02T07:56:32;2.70;;;0.63;;
69573;SDS011;62840;52.366;5.980;2024-03-02T07:58:58;3.33;;;0.80;;
69573;SDS011;62840;52.366;5.980;2024-03-02T08:01:24;2.67;;;0.80;;
69573;SDS011;62840;52.366;5.980;2024-03-02T08:03:53;2.38;;;0.80;;
69573;SDS011;62840;52.366;5.980;2024-03-02T08:06:19;2.55;;;1.00;;
69573;SDS011;62840;52.366;5.980;2024-03-02T08:08:45;3.80;;;0.90;;
69573;SDS011;62840;52.366;5.980;2024-03-02T08:11:11;3.10;;;0.90;;
69573;SDS011;62840;52.366;5.980;2024-03-02T08:13:37;3.33;;;0.85;;
69573;SDS011;62840;52.366;5.980;2024-03-02T08:16:03;2.73;;;1.00;;
69573;SDS011;62840;52.366;5.980;2024-03-02T08:18:32;2.97;;;1.13;;
69573;SDS011;62840;52.366;5.980;2024-03-02T08:21:02;3.08;;;1.08;;
69573;SDS011;62840;52.366;5.980;2024-03-02T08:23:29;3.00;;;0.85;;
69573;SDS011;62840;52.366;5.980;2024-03-02T08:25:55;3.28;;;0.80;;
69573;SDS011;62840;52.366;5.980;2024-03-02T08:28:21;3.03;;;0.60;;
69573;SDS011;62840;52.366;5.980;2024-03-02T08:30:46;3.35;;;0.90;;
69573;SDS011;62840;52.366;5.980;2024-03-02T08:33:12;2.53;;;0.55;;
69573;SDS011;62840;52.366;5.980;2024-03-02T08:35:38;2.67;;;0.80;;
69573;SDS011;62840;52.366;5.980;2024-03-02T08:38:07;3.70;;;1.00;;
69573;SDS011;62840;52.366;5.980;2024-03-02T08:40:33;2.55;;;0.60;;
69573;SDS011;62840;52.366;5.980;2024-03-02T08:42:59;2.72;;;0.80;;
69573;SDS011;62840;52.366;5.980;2024-03-02T08:45:25;2.67;;;0.97;;
69573;SDS011;62840;52.366;5.980;2024-03-02T08:47:51;2.70;;;0.90;;
69573;SDS011;62840;52.366;5.980;2024-03-02T08:50:17;2.85;;;0.75;;
69573;SDS011;62840;52.366;5.980;2024-03-02T08:52:43;2.97;;;1.00;;
69573;SDS011;62840;52.366;5.980;2024-03-02T08:55:12;2.63;;;0.70;;
69573;SDS011;62840;52.366;5.980;2024-03-02T08:57:38;2.35;;;0.80;;
69573;SDS011;62840;52.366;5.980;2024-03-02T09:00:05;2.13;;;0.65;;
69573;SDS011;62840;52.366;5.980;2024-03-02T09:02:33;2.83;;;0.80;;
69573;SDS011;62840;52.366;5.980;2024-03-02T09:04:59;2.90;;;0.77;;
69573;SDS011;62840;52.366;5.980;2024-03-02T09:07:25;4.23;;;0.83;;
69573;SDS011;62840;52.366;5.980;2024-03-02T09:09:51;2.75;;;0.60;;
69573;SDS011;62840;52.366;5.980;2024-03-02T09:12:20;3.78;;;0.73;;
69573;SDS011;62840;52.366;5.980;2024-03-02T09:14:46;3.28;;;1.00;;
69573;SDS011;62840;52.366;5.980;2024-03-02T09:17:12;2.30;;;0.70;;
69573;SDS011;62840;52.366;5.980;2024-03-02T09:19:38;2.00;;;0.50;;
69573;SDS011;62840;52.366;5.980;2024-03-02T09:22:05;3.58;;;0.80;;
69573;SDS011;62840;52.366;5.980;2024-03-02T09:24:31;3.25;;;0.55;;
69573;SDS011;62840;52.366;5.980;2024-03-02T09:26:57;2.45;;;0.68;;
69573;SDS011;62840;52.366;5.980;2024-03-02T09:29:25;2.90;;;0.80;;
69573;SDS011;62840;52.366;5.980;2024-03-02T09:31:51;2.80;;;0.90;;
69573;SDS011;62840;52.366;5.980;2024-03-02T09:34:17;4.68;;;0.77;;
69573;SDS011;62840;52.366;5.980;2024-03-02T09:36:43;3.17;;;0.70;;
69573;SDS011;62840;52.366;5.980;2024-03-02T09:39:09;4.72;;;0.65;;
69573;SDS011;62840;52.366;5.980;2024-03-02T09:41:35;2.53;;;0.50;;
69573;SDS011;62840;52.366;5.980;2024-03-02T09:44:02;2.90;;;0.90;;
69573;SDS011;62840;52.366;5.980;2024-03-02T09:46:31;3.03;;;0.60;;
69573;SDS011;62840;52.366;5.980;2024-03-02T09:48:57;2.72;;;0.65;;
69573;SDS011;62840;52.366;5.980;2024-03-02T09:51:24;3.67;;;0.60;;
69573;SDS011;62840;52.366;5.980;2024-03-02T09:53:51;1.90;;;0.50;;
69573;SDS011;62840;52.366;5.980;2024-03-02T09:56:17;2.47;;;1.00;;
69573;SDS011;62840;52.366;5.980;2024-03-02T09:58:43;3.07;;;0.70;;
69573;SDS011;62840;52.366;5.980;2024-03-02T10:01:09;2.70;;;0.70;;
69573;SDS011;62840;52.366;5.980;2024-03-02T10:03:38;3.03;;;0.70;;
69573;SDS011;62840;52.366;5.980;2024-03-02T10:06:20;3.30;;;0.90;;
69573;SDS011;62840;52.366;5.980;2024-03-02T10:08:47;3.20;;;0.70;;
69573;SDS011;62840;52.366;5.980;2024-03-02T10:11:23;2.42;;;0.60;;
69573;SDS011;62840;52.366;5.980;2024-03-02T10:13:55;3.10;;;0.70;;
69573;SDS011;62840;52.366;5.980;2024-03-02T10:16:30;2.70;;;1.00;;
69573;SDS011;62840;52.366;5.980;2024-03-02T10:19:00;3.07;;;0.70;;
69573;SDS011;62840;52.366;5.980;2024-03-02T10:21:44;4.40;;;0.90;;
69573;SDS011;62840;52.366;5.980;2024-03-02T10:24:10;4.10;;;1.05;;
69573;SDS011;62840;52.366;5.980;2024-03-02T10:26:37;3.67;;;0.70;;
69573;SDS011;62840;52.366;5.980;2024-03-02T10:29:03;3.58;;;0.80;;
69573;SDS011;62840;52.366;5.980;2024-03-02T10:31:28;4.15;;;0.90;;
69573;SDS011;62840;52.366;5.980;2024-03-02T10:33:55;3.15;;;0.70;;
69573;SDS011;62840;52.366;5.980;2024-03-02T10:36:25;2.33;;;0.70;;
69573;SDS011;62840;52.366;5.980;2024-03-02T10:38:51;3.40;;;0.77;;
69573;SDS011;62840;52.366;5.980;2024-03-02T10:41:17;2.87;;;0.53;;
69573;SDS011;62840;52.366;5.980;2024-03-02T10:43:45;2.00;;;0.52;;
69573;SDS011;62840;52.366;5.980;2024-03-02T10:46:13;2.40;;;0.73;;
69573;SDS011;62840;52.366;5.980;2024-03-02T10:48:44;4.28;;;0.60;;
69573;SDS011;62840;52.366;5.980;2024-03-02T10:51:11;3.63;;;0.80;;
69573;SDS011;62840;52.366;5.980;2024-03-02T10:53:40;3.37;;;0.50;;
69573;SDS011;62840;52.366;5.980;2024-03-02T10:56:07;3.47;;;0.80;;
69573;SDS011;62840;52.366;5.980;2024-03-02T10:58:36;2.53;;;0.80;;
69573;SDS011;62840;52.366;5.980;2024-03-02T11:01:03;2.50;;;0.57;;
69573;SDS011;62840;52.366;5.980;2024-03-02T11:03:33;4.82;;;0.80;;
69573;SDS011;62840;52.366;5.980;2024-03-02T11:06:01;3.53;;;0.50;;
69573;SDS011;62840;52.366;5.980;2024-03-02T11:08:33;6.47;;;0.60;;
69573;SDS011;62840;52.366;5.980;2024-03-02T11:11:06;3.15;;;0.90;;
69573;SDS011;62840;52.366;5.980;2024-03-02T11:13:40;2.70;;;0.50;;
69573;SDS011;62840;52.366;5.980;2024-03-02T11:16:16;3.38;;;0.73;;
69573;SDS011;62840;52.366;5.980;2024-03-02T11:18:59;4.60;;;0.70;;
69573;SDS011;62840;52.366;5.980;2024-03-02T11:21:25;3.05;;;0.70;;
69573;SDS011;62840;52.366;5.980;2024-03-02T11:23:51;3.08;;;0.70;;
69573;SDS011;62840;52.366;5.980;2024-03-02T11:26:20;2.92;;;0.50;;
69573;SDS011;62840;52.366;5.980;2024-03-02T11:28:47;4.30;;;0.83;;
69573;SDS011;62840;52.366;5.980;2024-03-02T11:31:13;2.45;;;0.80;;
69573;SDS011;62840;52.366;5.980;2024-03-02T11:33:39;4.15;;;0.90;;
69573;SDS011;62840;52.366;5.980;2024-03-02T11:36:06;3.10;;;0.60;;
69573;SDS011;62840;52.366;5.980;2024-03-02T11:38:33;3.30;;;0.90;;
69573;SDS011;62840;52.366;5.980;2024-03-02T11:41:01;4.30;;;0.80;;
69573;SDS011;62840;52.366;5.980;2024-03-02T11:43:33;3.38;;;0.68;;
69573;SDS011;62840;52.366;5.980;2024-03-02T11:46:03;4.13;;;0.90;;
69573;SDS011;62840;52.366;5.980;2024-03-02T11:48:31;2.20;;;0.68;;
69573;SDS011;62840;52.366;5.980;2024-03-02T11:50:57;3.70;;;1.00;;
69573;SDS011;62840;52.366;5.980;2024-03-02T11:53:25;2.15;;;0.80;;
69573;SDS011;62840;52.366;5.980;2024-03-02T11:55:53;2.53;;;0.52;;
69573;SDS011;62840;52.366;5.980;2024-03-02T11:58:21;2.60;;;0.60;;
69573;SDS011;62840;52.366;5.980;2024-03-02T12:00:49;2.28;;;0.85;;
69573;SDS011;62840;52.366;5.980;2024-03-02T12:03:16;4.40;;;0.70;;
69573;SDS011;62840;52.366;5.980;2024-03-02T12:05:42;3.03;;;0.90;;
69573;SDS011;62840;52.366;5.980;2024-03-02T12:08:08;2.83;;;0.70;;
69573;SDS011;62840;52.366;5.980;2024-03-02T12:10:37;2.70;;;0.70;;
69573;SDS011;62840;52.366;5.980;2024-03-02T12:13:04;3.28;;;0.60;;
69573;SDS011;62840;52.366;5.980;2024-03-02T12:15:33;2.30;;;0.50;;
69573;SDS011;62840;52.366;5.980;2024-03-02T12:18:04;2.83;;;0.80;;
69573;SDS011;62840;52.366;5.980;2024-03-02T12:20:32;4.68;;;0.77;;
69573;SDS011;62840;52.366;5.980;2024-03-02T12:22:59;3.30;;;0.88;;
69573;SDS011;62840;52.366;5.980;2024-03-02T12:25:29;2.55;;;1.00;;
69573;SDS011;62840;52.366;5.980;2024-03-02T12:27:58;3.83;;;0.80;;
69573;SDS011;62840;52.366;5.980;2024-03-02T12:30:26;2.55;;;1.00;;
69573;SDS011;62840;52.366;5.980;2024-03-02T12:32:55;4.18;;;0.90;;
69573;SDS011;62840;52.366;5.980;2024-03-02T12:35:24;2.70;;;0.82;;
69573;SDS011;62840;52.366;5.980;2024-03-02T12:37:51;2.80;;;0.90;;
69573;SDS011;62840;52.366;5.980;2024-03-02T12:40:19;2.97;;;0.80;;
69573;SDS011;62840;52.366;5.980;2024-03-02T12:42:46;4.60;;;0.90;;
69573;SDS011;62840;52.366;5.980;2024-03-02T12:45:12;3.90;;;0.82;;
69573;SDS011;62840;52.366;5.980;2024-03-02T12:47:39;3.38;;;0.65;;
69573;SDS011;62840;52.366;5.980;2024-03-02T12:50:07;3.38;;;0.70;;
69573;SDS011;62840;52.366;5.980;2024-03-02T12:52:37;3.17;;;0.80;;
69573;SDS011;62840;52.366;5.980;2024-03-02T12:55:04;3.10;;;0.70;;
69573;SDS011;62840;52.366;5.980;2024-03-02T12:57:31;3.70;;;0.80;;
69573;SDS011;62840;52.366;5.980;2024-03-02T12:59:58;4.38;;;0.52;;
69573;SDS011;62840;52.366;5.980;2024-03-02T13:02:27;2.97;;;0.90;;
69573;SDS011;62840;52.366;5.980;2024-03-02T13:04:54;2.88;;;0.90;;
69573;SDS011;62840;52.366;5.980;2024-03-02T13:07:20;3.05;;;0.90;;
69573;SDS011;62840;52.366;5.980;2024-03-02T13:09:49;2.80;;;0.80;;
69573;SDS011;62840;52.366;5.980;2024-03-02T13:12:16;2.88;;;0.70;;
69573;SDS011;62840;52.366;5.980;2024-03-02T13:14:44;4.05;;;0.77;;
69573;SDS011;62840;52.366;5.980;2024-03-02T13:17:13;2.75;;;0.70;;
69573;SDS011;62840;52.366;5.980;2024-03-02T13:19:39;3.75;;;0.70;;
69573;SDS011;62840;52.366;5.980;2024-03-02T13:22:16;2.90;;;0.68;;
69573;SDS011;62840;52.366;5.980;2024-03-02T13:24:42;2.60;;;1.00;;
69573;SDS011;62840;52.366;5.980;2024-03-02T13:27:10;3.20;;;1.00;;
69573;SDS011;62840;52.366;5.980;2024-03-02T13:29:36;2.10;;;0.50;;
69573;SDS011;62840;52.366;5.980;2024-03-02T13:32:02;3.97;;;1.00;;
69573;SDS011;62840;52.366;5.980;2024-03-02T13:34:29;3.55;;;0.90;;
69573;SDS011;62840;52.366;5.980;2024-03-02T13:36:55;2.90;;;0.93;;
69573;SDS011;62840;52.366;5.980;2024-03-02T13:39:21;4.15;;;1.55;;
69573;SDS011;62840;52.366;5.980;2024-03-02T13:41:47;3.87;;;1.00;;
69573;SDS011;62840;52.366;5.980;2024-03-02T13:44:15;4.20;;;1.40;;
69573;SDS011;62840;52.366;5.980;2024-03-02T13:46:41;4.95;;;1.05;;
69573;SDS011;62840;52.366;5.980;2024-03-02T13:49:07;2.80;;;0.97;;
69573;SDS011;62840;52.366;5.980;2024-03-02T13:51:33;3.05;;;1.08;;
69573;SDS011;62840;52.366;5.980;2024-03-02T13:53:59;4.25;;;1.38;;
69573;SDS011;62840;52.366;5.980;2024-03-02T13:56:26;3.65;;;1.40;;
69573;SDS011;62840;52.366;5.980;2024-03-02T13:58:52;4.82;;;1.20;;
69573;SDS011;62840;52.366;5.980;2024-03-02T14:01:21;4.68;;;0.98;;
69573;SDS011;62840;52.366;5.980;2024-03-02T14:03:47;3.40;;;1.15;;
69573;SDS011;62840;52.366;5.980;2024-03-02T14:06:13;3.33;;;0.90;;
69573;SDS011;62840;52.366;5.980;2024-03-02T14:08:39;3.25;;;1.00;;
69573;SDS011;62840;52.366;5.980;2024-03-02T14:11:05;3.65;;;0.98;;
69573;SDS011;62840;52.366;5.980;2024-03-02T14:13:30;3.30;;;1.00;;
69573;SDS011;62840;52.366;5.980;2024-03-02T14:15:56;2.40;;;0.75;;
69573;SDS011;62840;52.366;5.980;2024-03-02T14:18:25;3.90;;;0.70;;
69573;SDS011;62840;52.366;5.980;2024-03-02T14:20:51;3.15;;;1.05;;
69573;SDS011;62840;52.366;5.980;2024-03-02T14:23:17;2.45;;;0.80;;
69573;SDS011;62840;52.366;5.980;2024-03-02T14:25:43;3.42;;;1.08;;
69573;SDS011;62840;52.366;5.980;2024-03-02T14:28:09;3.17;;;0.70;;
69573;SDS011;62840;52.366;5.980;2024-03-02T14:30:34;2.72;;;0.90;;
69573;SDS011;62840;52.366;5.980;2024-03-02T14:33:00;3.20;;;0.90;;
69573;SDS011;62840;52.366;5.980;2024-03-02T14:35:29;3.43;;;1.10;;
69573;SDS011;62840;52.366;5.980;2024-03-02T14:37:55;3.55;;;1.20;;
69573;SDS011;62840;52.366;5.980;2024-03-02T14:40:21;4.13;;;0.93;;
69573;SDS011;62840;52.366;5.980;2024-03-02T14:42:47;2.75;;;0.82;;
69573;SDS011;62840;52.366;5.980;2024-03-02T14:45:13;3.47;;;0.90;;
69573;SDS011;62840;52.366;5.980;2024-03-02T14:47:39;4.10;;;1.08;;
69573;SDS011;62840;52.366;5.980;2024-03-02T14:50:05;4.70;;;1.20;;